createdAt,value
2023-03-11T00:00:20.906Z,2.40
2023-03-11T00:02:50.293Z,2.30
2023-03-11T00:05:20.945Z,2.30
2023-03-11T00:07:49.189Z,2.30
2023-03-11T00:10:22.248Z,2.30
2023-03-11T00:12:50.347Z,2.30
2023-03-11T00:15:18.569Z,2.20
2023-03-11T00:17:48.186Z,2.30
2023-03-11T00:20:19.404Z,2.30
2023-03-11T00:22:47.722Z,2.20
2023-03-11T00:25:16.238Z,2.20
2023-03-11T00:27:45.709Z,2.20
2023-03-11T00:30:15.538Z,2.10
2023-03-11T00:32:44.065Z,2.20
2023-03-11T00:35:14.567Z,2.20
2023-03-11T00:37:43.247Z,2.10
2023-03-11T00:40:14.569Z,2.40
2023-03-11T00:42:42.724Z,2.30
2023-03-11T00:45:13.351Z,2.30
2023-03-11T00:47:41.994Z,2.30
2023-03-11T00:50:15.105Z,2.40
2023-03-11T00:52:43.207Z,2.50
2023-03-11T00:55:12.189Z,2.50
2023-03-11T00:57:40.266Z,2.50
2023-03-11T01:00:11.824Z,2.60
2023-03-11T01:02:41.324Z,2.50
2023-03-11T01:05:10.496Z,2.60
2023-03-11T01:07:38.563Z,2.50
2023-03-11T01:10:08.802Z,2.60
2023-03-11T01:12:36.896Z,2.50
2023-03-11T01:15:07.184Z,2.50
2023-03-11T01:17:35.271Z,2.40
2023-03-11T01:20:07.776Z,2.60
2023-03-11T01:22:35.849Z,2.50
2023-03-11T01:25:04.258Z,2.50
2023-03-11T01:27:32.265Z,2.70
2023-03-11T01:30:00.292Z,2.50
2023-03-11T01:32:28.339Z,2.70
2023-03-11T01:34:56.404Z,2.60
2023-03-11T01:37:25.778Z,2.50
2023-03-11T01:39:53.864Z,2.50
2023-03-11T01:42:21.947Z,2.30
2023-03-11T01:44:49.994Z,2.30
2023-03-11T01:47:44.834Z,2.20
2023-03-11T01:50:14.404Z,2.20
2023-03-11T01:52:45.697Z,2.20
2023-03-11T01:55:15.306Z,2.20
2023-03-11T01:57:47.251Z,2.20
2023-03-11T02:00:16.795Z,2.00
2023-03-11T02:02:50.394Z,2.10
2023-03-11T02:05:19.869Z,2.20
2023-03-11T02:07:50.126Z,2.20
2023-03-11T02:10:18.832Z,2.10
2023-03-11T02:12:47.997Z,2.10
2023-03-11T02:15:16.477Z,2.10
2023-03-11T02:17:45.017Z,2.10
2023-03-11T02:20:22.223Z,2.10
2023-03-11T02:22:51.790Z,2.00
2023-03-11T02:25:28.106Z,1.90
2023-03-11T02:27:59.665Z,1.90
2023-03-11T02:30:28.439Z,1.90
2023-03-11T02:32:57.321Z,2.00
2023-03-11T02:35:25.675Z,2.00
2023-03-11T02:37:55.060Z,2.00
2023-03-11T02:40:54.046Z,2.00
2023-03-11T02:43:28.603Z,2.10
2023-03-11T02:45:57.737Z,2.10
2023-03-11T02:48:25.887Z,2.10
2023-03-11T02:50:54.374Z,2.00
2023-03-11T02:53:22.477Z,2.00
2023-03-11T02:55:50.496Z,2.00
2023-03-11T02:58:18.559Z,1.80
2023-03-11T03:00:48.053Z,1.80
2023-03-11T03:03:16.247Z,1.70
2023-03-11T03:05:44.325Z,1.70
2023-03-11T03:08:12.376Z,1.60
2023-03-11T03:10:40.531Z,1.60
2023-03-11T03:13:08.950Z,1.50
2023-03-11T03:15:37.061Z,1.60
2023-03-11T03:18:06.763Z,1.30
2023-03-11T03:20:34.989Z,1.30
2023-03-11T03:23:03.063Z,1.20
2023-03-11T03:25:31.179Z,1.20
2023-03-11T03:27:59.287Z,1.30
2023-03-11T03:30:28.435Z,1.50
2023-03-11T03:32:56.902Z,1.50
2023-03-11T03:35:26.348Z,1.30
2023-03-11T03:37:55.125Z,1.20
2023-03-11T03:40:23.435Z,1.30
2023-03-11T03:42:51.578Z,1.20
2023-03-11T03:45:19.951Z,1.20
2023-03-11T03:47:48.016Z,1.10
2023-03-11T03:50:16.060Z,-0.10
2023-03-11T03:52:45.660Z,1.00
2023-03-11T03:55:13.774Z,0.90
2023-03-11T03:57:41.823Z,0.90
2023-03-11T04:00:12.291Z,0.80
2023-03-11T04:02:40.520Z,0.80
2023-03-11T04:05:09.713Z,0.10
2023-03-11T04:07:37.815Z,0.60
2023-03-11T04:10:08.712Z,0.60
2023-03-11T04:12:36.783Z,0.50
2023-03-11T04:15:05.384Z,0.60
2023-03-11T04:17:33.474Z,0.50
2023-03-11T04:20:01.531Z,0.70
2023-03-11T04:22:29.612Z,0.60
2023-03-11T04:24:57.705Z,0.50
2023-03-11T04:27:27.130Z,0.50
2023-03-11T04:29:55.194Z,0.40
2023-03-11T04:32:23.375Z,0.60
2023-03-11T04:34:51.840Z,0.60
2023-03-11T04:37:19.918Z,0.40
2023-03-11T04:39:47.999Z,0.40
2023-03-11T04:42:16.058Z,0.40
2023-03-11T04:44:45.485Z,0.40
2023-03-11T04:47:13.503Z,0.40
2023-03-11T04:49:41.546Z,0.30
2023-03-11T04:52:09.598Z,0.30
2023-03-11T04:54:37.617Z,0.30
2023-03-11T04:57:05.989Z,0.40
2023-03-11T04:59:34.036Z,0.30
2023-03-11T05:02:03.475Z,0.40
2023-03-11T05:04:31.597Z,0.20
2023-03-11T05:06:59.676Z,0.00
2023-03-11T05:09:27.772Z,0.00
2023-03-11T05:11:55.909Z,0.00
2023-03-11T05:14:23.931Z,-0.10
2023-03-11T05:16:52.009Z,-0.10
2023-03-11T05:19:35.151Z,0.00
2023-03-11T05:22:04.168Z,0.60
2023-03-11T05:24:32.877Z,-0.10
2023-03-11T05:27:01.498Z,-0.10
2023-03-11T05:29:29.997Z,-0.10
2023-03-11T05:31:58.079Z,-0.10
2023-03-11T05:34:27.515Z,-0.10
2023-03-11T05:36:55.682Z,-0.20
2023-03-11T05:39:23.810Z,-0.10
2023-03-11T05:41:52.015Z,0.00
2023-03-11T05:44:20.173Z,-1.40
2023-03-11T05:46:48.455Z,-0.10
2023-03-11T05:49:16.650Z,0.10
2023-03-11T05:51:46.240Z,0.10
2023-03-11T05:54:15.940Z,0.20
2023-03-11T05:56:44.546Z,0.10
2023-03-11T05:59:16.272Z,0.20
2023-03-11T06:01:45.351Z,0.10
2023-03-11T06:04:13.773Z,0.30
2023-03-11T06:06:42.241Z,0.00
2023-03-11T06:09:14.516Z,0.00
2023-03-11T06:11:42.897Z,0.10
2023-03-11T06:14:13.714Z,0.30
2023-03-11T06:16:42.367Z,0.10
2023-03-11T06:19:10.915Z,0.30
2023-03-11T06:21:39.116Z,0.00
2023-03-11T06:24:07.741Z,-0.10
2023-03-11T06:26:37.619Z,-0.10
2023-03-11T06:29:05.811Z,0.00
2023-03-11T06:31:34.428Z,0.00
2023-03-11T06:34:02.730Z,0.20
2023-03-11T06:36:30.983Z,0.20
2023-03-11T06:38:59.158Z,0.20
2023-03-11T06:41:27.292Z,0.20
2023-03-11T06:43:59.726Z,0.20
2023-03-11T06:46:27.913Z,0.50
2023-03-11T06:48:56.311Z,0.30
2023-03-11T06:51:24.561Z,0.30
2023-03-11T06:53:53.830Z,0.40
2023-03-11T06:56:23.253Z,0.40
2023-03-11T06:58:51.494Z,0.60
2023-03-11T07:01:22.653Z,0.80
2023-03-11T07:03:52.586Z,0.90
2023-03-11T07:06:23.372Z,1.00
2023-03-11T07:08:53.318Z,1.20
2023-03-11T07:11:23.509Z,1.30
2023-03-11T07:13:52.050Z,1.30
2023-03-11T07:16:24.492Z,1.40
2023-03-11T07:18:54.233Z,1.40
2023-03-11T07:21:24.131Z,1.50
2023-03-11T07:23:54.572Z,1.50
2023-03-11T07:26:24.149Z,1.80
2023-03-11T07:28:54.387Z,1.70
2023-03-11T07:31:25.876Z,1.60
2023-03-11T07:33:54.123Z,1.60
2023-03-11T07:36:24.391Z,1.50
2023-03-11T07:38:58.307Z,1.30
2023-03-11T07:41:27.077Z,1.30
2023-03-11T07:43:56.685Z,1.30
2023-03-11T07:46:27.297Z,1.30
2023-03-11T07:48:56.053Z,1.30
2023-03-11T07:51:26.723Z,1.30
2023-03-11T07:53:56.977Z,1.40
2023-03-11T07:56:26.412Z,1.50
2023-03-11T07:58:54.880Z,1.40
2023-03-11T08:01:27.144Z,1.30
2023-03-11T08:03:58.806Z,1.20
2023-03-11T08:06:31.280Z,1.40
2023-03-11T08:09:02.057Z,1.50
2023-03-11T08:11:31.890Z,1.60
2023-03-11T08:14:00.510Z,1.60
2023-03-11T08:16:31.054Z,1.70
2023-03-11T08:18:59.329Z,1.80
2023-03-11T08:21:30.066Z,1.90
2023-03-11T08:23:59.860Z,1.90
2023-03-11T08:26:28.289Z,1.80
2023-03-11T08:28:57.332Z,1.70
2023-03-11T08:31:28.332Z,1.70
2023-03-11T08:34:00.923Z,1.80
2023-03-11T08:36:30.010Z,1.90
2023-03-11T08:38:58.616Z,2.00
2023-03-11T08:41:27.795Z,1.80
2023-03-11T08:43:56.263Z,1.70
2023-03-11T08:46:26.963Z,1.80
2023-03-11T08:48:55.734Z,2.00
2023-03-11T08:51:26.312Z,1.90
2023-03-11T08:53:55.118Z,2.20
2023-03-11T08:56:23.364Z,2.30
2023-03-11T08:58:51.887Z,2.40
2023-03-11T09:01:20.499Z,2.50
2023-03-11T09:03:48.906Z,2.60
2023-03-11T09:06:18.282Z,2.70
2023-03-11T09:08:49.502Z,2.60
2023-03-11T09:11:18.826Z,2.70
2023-03-11T09:13:47.310Z,2.90
2023-03-11T09:16:17.355Z,3.00
2023-03-11T09:18:46.918Z,2.90
2023-03-11T09:21:15.244Z,3.00
2023-03-11T09:23:44.598Z,3.00
2023-03-11T09:26:14.651Z,2.90
2023-03-11T09:28:43.720Z,2.90
2023-03-11T09:31:12.196Z,3.20
2023-03-11T09:33:41.872Z,3.00
2023-03-11T09:36:14.942Z,3.10
2023-03-11T09:38:44.055Z,3.40
2023-03-11T09:41:26.782Z,3.60
2023-03-11T09:44:11.439Z,3.30
2023-03-11T09:47:24.357Z,3.10
2023-03-11T09:50:13.090Z,3.00
2023-03-11T09:52:46.000Z,3.10
2023-03-11T09:55:37.868Z,3.40
2023-03-11T09:58:13.379Z,3.70
2023-03-11T10:00:42.344Z,3.90
2023-03-11T10:03:23.680Z,4.00
2023-03-11T10:05:55.920Z,4.00
2023-03-11T10:08:30.374Z,3.90
2023-03-11T10:11:05.002Z,3.70
2023-03-11T10:13:41.942Z,3.50
2023-03-11T10:16:19.662Z,3.60
2023-03-11T10:18:56.224Z,3.50
2023-03-11T10:21:37.702Z,3.50
2023-03-11T10:24:16.545Z,3.40
2023-03-11T10:26:50.278Z,3.20
2023-03-11T10:29:24.810Z,2.90
2023-03-11T10:31:59.776Z,2.90
2023-03-11T10:34:32.537Z,3.00
2023-03-11T10:37:04.843Z,2.90
2023-03-11T10:39:34.121Z,2.70
2023-03-11T10:42:04.733Z,2.90
2023-03-11T10:44:36.709Z,3.00
2023-03-11T10:47:06.279Z,3.10
2023-03-11T10:49:34.392Z,3.20
2023-03-11T10:52:04.954Z,3.40
2023-03-11T10:54:35.824Z,3.70
2023-03-11T10:57:05.353Z,3.90
2023-03-11T10:59:37.484Z,4.10
2023-03-11T11:02:23.806Z,4.30
2023-03-11T11:05:07.198Z,4.40
2023-03-11T11:07:37.760Z,4.50
2023-03-11T11:10:18.397Z,4.70
2023-03-11T11:12:59.072Z,4.70
2023-03-11T11:15:31.395Z,4.80
2023-03-11T11:18:01.773Z,4.90
2023-03-11T11:20:31.674Z,5.00
2023-03-11T11:23:01.363Z,5.10
2023-03-11T11:25:33.103Z,5.30
2023-03-11T11:28:05.243Z,5.30
2023-03-11T11:30:34.955Z,5.40
2023-03-11T11:33:24.149Z,5.40
2023-03-11T11:35:55.140Z,5.40
2023-03-11T11:38:25.787Z,5.50
2023-03-11T11:40:56.057Z,5.10
2023-03-11T11:43:37.242Z,5.00
2023-03-11T11:46:13.325Z,4.70
2023-03-11T11:48:48.760Z,4.60
2023-03-11T11:51:21.677Z,4.70
2023-03-11T11:53:55.355Z,4.50
2023-03-11T11:56:25.346Z,4.40
2023-03-11T11:58:54.697Z,4.50
2023-03-11T12:01:36.046Z,4.50
2023-03-11T12:04:21.321Z,4.40
2023-03-11T12:06:55.311Z,4.40
2023-03-11T12:09:30.698Z,4.50
2023-03-11T12:12:05.683Z,4.30
2023-03-11T12:14:43.084Z,4.30
2023-03-11T12:17:16.765Z,4.50
2023-03-11T12:19:50.766Z,4.50
2023-03-11T12:22:55.184Z,4.50
2023-03-11T12:25:32.782Z,4.60
2023-03-11T12:28:10.666Z,4.70
2023-03-11T12:30:43.994Z,4.70
2023-03-11T12:33:18.448Z,4.90
2023-03-11T12:35:53.538Z,5.00
2023-03-11T12:38:28.271Z,5.00
2023-03-11T12:41:02.137Z,5.00
2023-03-11T12:43:59.276Z,5.00
2023-03-11T12:47:02.212Z,5.10
2023-03-11T12:49:33.076Z,5.00
2023-03-11T12:52:07.363Z,5.20
2023-03-11T12:54:36.941Z,5.40
2023-03-11T12:57:14.360Z,5.60
2023-03-11T13:00:24.103Z,5.80
2023-03-11T13:03:32.938Z,6.10
2023-03-11T13:06:22.288Z,6.10
2023-03-11T13:08:55.503Z,6.30
2023-03-11T13:11:44.772Z,6.40
2023-03-11T13:14:29.740Z,6.40
2023-03-11T13:16:59.001Z,6.30
2023-03-11T13:19:47.589Z,6.10
2023-03-11T13:22:55.252Z,5.90
2023-03-11T13:25:34.651Z,5.80
2023-03-11T13:28:28.754Z,6.10
2023-03-11T13:31:06.979Z,5.70
2023-03-11T13:33:53.279Z,5.90
2023-03-11T13:36:51.181Z,6.10
2023-03-11T13:39:31.930Z,6.40
2023-03-11T13:42:04.630Z,6.70
2023-03-11T13:44:37.984Z,6.80
2023-03-11T13:47:12.543Z,6.80
2023-03-11T13:49:44.505Z,6.60
2023-03-11T13:52:17.176Z,6.80
2023-03-11T13:54:48.862Z,6.60
2023-03-11T13:57:25.886Z,6.20
2023-03-11T13:59:55.094Z,5.90
2023-03-11T14:02:25.376Z,6.00
2023-03-11T14:04:56.855Z,5.90
2023-03-11T14:07:30.404Z,5.90
2023-03-11T14:10:22.291Z,6.10
2023-03-11T14:12:51.879Z,6.60
2023-03-11T14:15:23.342Z,6.80
2023-03-11T14:17:53.576Z,6.70
2023-03-11T14:20:25.221Z,6.90
2023-03-11T16:04:24.881Z,7.30
2023-03-11T16:07:07.097Z,7.20
2023-03-11T16:09:36.324Z,7.20
2023-03-11T16:12:14.470Z,6.90
2023-03-11T16:14:42.680Z,6.70
2023-03-11T16:17:14.605Z,6.60
2023-03-11T16:19:43.342Z,6.50
2023-03-11T16:22:17.902Z,6.40
2023-03-11T16:24:46.992Z,6.50
2023-03-11T16:27:17.929Z,6.60
2023-03-11T16:29:46.710Z,6.50
2023-03-11T16:32:16.444Z,6.50
2023-03-11T16:34:44.659Z,6.40
2023-03-11T16:37:16.769Z,6.50
2023-03-11T16:39:44.935Z,6.50
2023-03-11T16:42:13.096Z,6.50
2023-03-11T16:44:41.244Z,6.40
2023-03-11T16:47:09.389Z,6.40
2023-03-11T16:49:38.932Z,6.40
2023-03-11T16:52:07.614Z,6.20
2023-03-11T16:54:35.969Z,6.00
2023-03-11T16:57:04.231Z,6.10
2023-03-11T16:59:32.362Z,6.00
2023-03-11T17:02:00.598Z,5.90
2023-03-11T17:04:28.819Z,5.90
2023-03-11T17:06:58.380Z,5.70
2023-03-11T17:09:26.551Z,5.60
2023-03-11T17:11:54.887Z,5.70
2023-03-11T17:14:22.999Z,5.50
2023-03-11T17:16:51.268Z,5.60
2023-03-11T17:19:19.482Z,5.40
2023-03-11T17:21:47.724Z,5.30
2023-03-11T17:24:17.738Z,5.10
2023-03-11T17:26:46.023Z,5.20
2023-03-11T17:29:14.259Z,5.20
2023-03-11T17:31:42.484Z,5.20
2023-03-11T17:34:10.696Z,4.20
2023-03-11T17:36:41.286Z,5.10
2023-03-11T17:39:09.831Z,5.00
2023-03-11T17:41:39.735Z,5.00
2023-03-11T17:44:08.340Z,5.00
2023-03-11T17:46:38.869Z,4.90
2023-03-11T17:49:07.789Z,4.90
2023-03-11T17:51:36.270Z,4.70
2023-03-11T17:54:05.274Z,4.70
2023-03-11T17:56:33.613Z,4.60
2023-03-11T17:59:03.265Z,4.60
2023-03-11T18:01:31.664Z,4.60
2023-03-11T18:04:00.700Z,4.40
2023-03-11T18:06:29.587Z,4.30
2023-03-11T18:08:58.080Z,4.30
2023-03-11T18:11:28.421Z,4.30
2023-03-11T18:13:57.014Z,4.20
2023-03-11T18:16:28.561Z,4.20
2023-03-11T18:18:58.417Z,4.20
2023-03-11T18:21:29.190Z,4.00
2023-03-11T18:23:59.020Z,4.00
2023-03-11T18:26:28.983Z,3.90
2023-03-11T18:28:58.583Z,3.90
2023-03-11T18:31:29.468Z,3.70
2023-03-11T18:33:59.501Z,3.70
2023-03-11T18:36:29.941Z,3.90
2023-03-11T18:38:59.564Z,3.70
2023-03-11T18:41:29.227Z,3.60
2023-03-11T18:43:58.502Z,3.60
2023-03-11T18:46:31.528Z,3.20
2023-03-11T18:49:01.444Z,3.00
2023-03-11T18:51:31.304Z,3.00
2023-03-11T18:54:00.036Z,2.90
2023-03-11T18:56:30.976Z,2.80
2023-03-11T18:58:59.272Z,2.70
2023-03-11T19:01:28.963Z,2.70
2023-03-11T19:04:00.421Z,2.60
2023-03-11T19:06:29.441Z,2.30
2023-03-11T19:08:58.807Z,2.20
2023-03-11T19:11:27.304Z,2.10
2023-03-11T19:13:55.950Z,2.00
2023-03-11T19:16:26.275Z,1.90
2023-03-11T19:18:56.459Z,1.90
2023-03-11T19:21:25.846Z,1.90
2023-03-11T19:23:55.348Z,1.80
2023-03-11T19:26:41.567Z,1.90
2023-03-11T19:29:12.467Z,1.90
2023-03-11T19:31:40.656Z,1.90
2023-03-11T19:34:10.419Z,1.60
2023-03-11T19:36:39.213Z,1.20
2023-03-11T19:41:36.098Z,0.90
2023-03-11T19:46:34.801Z,0.80
2023-03-11T19:49:03.382Z,1.10
2023-03-11T19:51:48.212Z,0.90
2023-03-11T19:54:17.676Z,0.90
2023-03-11T19:56:46.138Z,0.70
2023-03-11T19:59:14.474Z,0.70
2023-03-11T20:01:43.328Z,0.60
2023-03-11T20:04:11.944Z,0.60
2023-03-11T20:09:11.377Z,0.50
2023-03-11T20:11:40.809Z,0.50
2023-03-11T20:14:09.719Z,0.40
2023-03-11T20:16:38.335Z,0.50
2023-03-11T20:19:09.236Z,0.60
2023-03-11T20:21:39.481Z,0.60
2023-03-11T20:24:10.387Z,0.50
2023-03-11T20:26:38.973Z,0.50
2023-03-11T20:29:07.867Z,0.70
2023-03-11T20:31:36.649Z,0.40
2023-03-11T20:34:07.800Z,0.20
2023-03-11T20:36:36.192Z,0.00
2023-03-11T20:39:07.877Z,0.20
2023-03-11T20:41:40.847Z,0.10
2023-03-11T20:49:14.504Z,0.00
2023-03-11T20:51:43.982Z,0.00
2023-03-11T20:54:12.614Z,0.00
2023-03-11T20:56:51.784Z,-0.10
2023-03-11T20:59:31.358Z,1.20
2023-03-11T21:02:01.900Z,-0.20
2023-03-11T21:04:30.394Z,-0.20
2023-03-11T21:09:40.009Z,-0.40
2023-03-11T21:12:11.888Z,0.20
2023-03-11T21:14:40.348Z,-0.50
2023-03-11T21:17:10.728Z,-0.20
2023-03-11T21:19:38.998Z,-1.50
2023-03-11T21:22:07.729Z,-0.40
2023-03-11T21:24:35.912Z,-0.30
2023-03-11T21:27:06.261Z,-0.30
2023-03-11T21:29:35.793Z,-0.20
2023-03-11T21:32:06.501Z,0.30
2023-03-11T21:34:36.785Z,1.30
2023-03-11T21:37:04.877Z,-0.40
2023-03-11T21:39:33.000Z,-0.60
2023-03-11T21:42:01.145Z,-0.70
2023-03-11T21:44:29.577Z,-0.60
2023-03-11T21:46:59.220Z,-0.70
2023-03-11T21:49:28.043Z,-0.70
2023-03-11T21:51:59.691Z,0.60
2023-03-11T21:54:29.807Z,-0.80
2023-03-11T21:57:00.018Z,-1.00
2023-03-11T21:59:28.343Z,-0.90
2023-03-11T22:02:01.215Z,-0.30
2023-03-11T22:04:30.088Z,-0.70
2023-03-11T22:09:28.083Z,-0.70
2023-03-11T22:11:57.002Z,-0.70
2023-03-11T22:14:25.722Z,-0.40
2023-03-11T22:16:53.814Z,-0.70
2023-03-11T22:21:53.258Z,-0.80
2023-03-11T22:24:21.304Z,-0.80
2023-03-11T22:26:49.554Z,-1.00
2023-03-11T22:31:46.693Z,-1.10
2023-03-11T22:34:17.310Z,-1.10
2023-03-11T22:36:46.761Z,-1.20
2023-03-11T22:39:14.846Z,-1.30
2023-03-11T22:41:42.863Z,-1.30
2023-03-11T22:44:10.931Z,-1.20
2023-03-11T22:46:38.990Z,-1.10
2023-03-11T22:49:07.067Z,-1.10
2023-03-11T22:54:09.434Z,-1.40
2023-03-11T22:56:39.590Z,0.00
2023-03-11T22:59:07.691Z,-1.10
2023-03-11T23:01:35.978Z,-1.00
2023-03-11T23:04:04.044Z,-0.80
2023-03-11T23:06:32.121Z,-0.90
2023-03-11T23:09:00.300Z,-1.00
2023-03-11T23:11:29.761Z,-1.00
2023-03-11T23:14:00.191Z,-1.00
2023-03-11T23:19:01.128Z,-1.20
2023-03-11T23:21:35.455Z,-1.20
2023-03-11T23:24:06.027Z,-1.30
2023-03-11T23:26:36.536Z,-1.40
2023-03-11T23:29:05.438Z,-1.50
2023-03-11T23:31:33.718Z,-1.60
2023-03-11T23:34:01.737Z,-1.60
2023-03-11T23:41:38.002Z,-1.60
2023-03-11T23:46:35.377Z,-2.90
2023-03-11T23:49:03.513Z,-1.70
2023-03-11T23:51:31.573Z,-0.50
2023-03-11T23:53:59.634Z,-1.70
2023-03-11T23:56:27.760Z,-1.70
2023-03-11T23:58:57.155Z,-1.80
